Time;durP1;ratioP1;P1;durP2;ratioP2;P2;SDS_P1;SDS_P2;PMS_P1;PMS_P2;Temp;Humidity;BMP_temperature;BMP_pressure;BME280_temperature;BME280_humidity;BME280_pressure;Samples;Min_cycle;Max_cycle;Signal;HPM_P1;HPM_P2
2021/03/12 00:00:45;;;;;;;;;;;;;;;4.65;76.83;99049.39;1660133;83;20303;-77
2021/03/12 00:03:32;;;;;;;;;;;;;;;4.63;76.84;99049.41;1661358;84;20280;-77
2021/03/12 00:06:17;;;;;;;;;;;;;;;4.63;76.85;99058.38;1671762;85;20267;-76
2021/03/12 00:09:04;;;;;;;;;;;;;;;4.62;76.90;99065.65;1658708;85;20448;-76
2021/03/12 00:11:49;;;;;;;;;;;;;;;4.62;76.89;99063.09;1658730;86;20307;-77
2021/03/12 00:14:33;;;;;;;;;;;;;;;4.61;76.90;99068.23;1661293;85;20276;-76
2021/03/12 00:17:17;;;;;;;;;;;;;;;4.60;76.91;99087.02;1679307;85;20592;-77
2021/03/12 00:20:11;;;;;;;;;;;;;;;4.57;76.92;99080.23;1664897;84;20271;-76
2021/03/12 00:22:55;;;;;;;;;;;;;;;4.56;76.98;99084.09;1700878;83;20262;-76
2021/03/12 00:25:42;;;;;;;;;;;;;;;4.56;77.02;99087.94;1666888;84;20302;-76
2021/03/12 00:28:27;;;;;;;;;;;;;;;4.56;77.03;99093.06;1658864;86;20192;-76
2021/03/12 00:31:12;;;;;;;;;;;;;;;4.56;77.10;99086.22;1660390;83;20493;-76
2021/03/12 00:33:56;;;;;;;;;;;;;;;4.57;77.12;99084.08;1676346;85;20190;-76
2021/03/12 00:36:41;;;;;;;;;;;;;;;4.59;77.11;99090.45;1706562;83;20312;-76
2021/03/12 00:39:25;;;;;;;;;;;;;;;4.61;77.16;99091.27;1678442;85;20285;-76
2021/03/12 00:42:10;;;;;;;;;;;;;;;4.61;77.13;99097.23;1664171;83;20316;-76
2021/03/12 00:44:54;;;;;;;;;;;;;;;4.62;77.08;99093.80;1662389;86;20215;-76
2021/03/12 00:47:39;;;;;;;;;;;;;;;4.62;77.16;99100.20;1670696;84;20330;-77
2021/03/12 00:50:27;;;;;;;;;;;;;;;4.62;77.16;99089.97;1672097;85;20291;-76
2021/03/12 00:53:11;;;;;;;;;;;;;;;4.62;77.17;99089.97;1683864;85;20315;-76
2021/03/12 00:55:56;;;;;;;;;;;;;;;4.62;77.15;99086.56;1657368;85;20318;-76
2021/03/12 00:58:41;;;;;;;;;;;;;;;4.60;77.18;99090.42;1682423;85;21235;-76
2021/03/12 01:01:26;;;;;;;;;;;;;;;4.59;77.20;99097.70;1681412;84;20301;-76
2021/03/12 01:04:10;;;;;;;;;;;;;;;4.58;77.19;99099.84;1669993;85;20327;-76
2021/03/12 01:06:55;;;;;;;;;;;;;;;4.59;77.22;99103.25;1637798;86;20357;-76
2021/03/12 01:09:39;;;;;;;;;;;;;;;4.57;77.21;99096.03;1637806;87;20321;-76
2021/03/12 01:12:24;;;;;;;;;;;;;;;4.56;77.26;99103.30;1654023;84;21244;-77
2021/03/12 01:15:13;;;;;;;;;;;;;;;4.54;77.25;99096.08;1646600;83;20305;-77
2021/03/12 01:17:57;;;;;;;;;;;;;;;4.51;77.28;99088.02;1645668;86;20430;-76
2021/03/12 01:20:42;;;;;;;;;;;;;;;4.51;77.32;99097.41;1644779;85;20333;-76
2021/03/12 01:23:26;;;;;;;;;;;;;;;4.50;77.32;99102.11;1680670;85;20214;-76
2021/03/12 01:26:11;;;;;;;;;;;;;;;4.48;77.36;99102.14;1673933;84;348733;-76
2021/03/12 01:28:55;;;;;;;;;;;;;;;4.48;77.36;99107.26;1599852;88;20312;-76
2021/03/12 01:31:40;;;;;;;;;;;;;;;4.47;77.37;99100.88;1602907;87;20318;-76
2021/03/12 01:34:25;;;;;;;;;;;;;;;4.46;77.40;99094.92;1607759;87;20304;-76
2021/03/12 01:37:09;;;;;;;;;;;;;;;4.46;77.44;99088.95;1635439;86;20309;-76
2021/03/12 01:39:54;;;;;;;;;;;;;;;4.45;77.45;99090.67;1649261;85;20557;-76
2021/03/12 01:42:38;;;;;;;;;;;;;;;4.46;77.49;99089.80;1636700;85;20341;-76
2021/03/12 01:45:27;;;;;;;;;;;;;;;4.47;77.48;99094.48;1640322;85;20338;-76
2021/03/12 01:48:13;;;;;;;;;;;;;;;4.48;77.52;99093.18;1660175;85;20309;-76
2021/03/12 01:51:05;;;;;;;;;;;;;;;4.50;77.50;99097.84;1635750;87;20346;-76
2021/03/12 01:53:50;;;;;;;;;;;;;;;4.50;77.49;99106.80;1647343;84;20291;-77
2021/03/12 01:56:34;;;;;;;;;;;;;;;4.49;77.44;99100.42;1662410;85;20282;-76
2021/03/12 01:59:19;;;;;;;;;;;;;;;4.46;77.44;99099.19;1635762;86;20437;-76
2021/03/12 02:02:04;;;;;;;;;;;;;;;4.45;77.46;99101.34;1648541;84;20307;-75
2021/03/12 02:04:48;;;;;;;;;;;;;;;4.41;77.43;99100.54;1668391;85;20293;-75
2021/03/12 02:07:34;;;;;;;;;;;;;;;4.40;77.51;99109.52;1684372;85;20565;-76
2021/03/12 02:10:24;;;;;;;;;;;;;;;4.38;77.54;99113.38;1641275;86;20417;-76
2021/03/12 02:13:44;;;;;;;;;;;;;;;4.38;77.61;99106.14;1643683;84;20353;-76
2021/03/12 02:16:35;;;;;;;;;;;;;;;4.38;77.63;99109.55;1637709;84;20222;-77
2021/03/12 02:19:29;;;;;;;;;;;;;;;4.38;77.64;99104.42;1672247;84;20323;-76
2021/03/12 02:22:13;;;;;;;;;;;;;;;4.36;77.59;99099.77;1651204;86;20337;-76
2021/03/12 02:25:07;;;;;;;;;;;;;;;4.34;77.65;99092.55;1635255;87;20309;-77
2021/03/12 02:27:52;;;;;;;;;;;;;;;4.32;77.68;99099.40;1656227;85;20319;-76
2021/03/12 02:30:39;;;;;;;;;;;;;;;4.30;77.69;99100.70;1662467;86;20401;-76
2021/03/12 02:33:26;;;;;;;;;;;;;;;4.27;77.69;99105.02;1662070;86;20350;-76
2021/03/12 02:36:11;;;;;;;;;;;;;;;4.24;77.72;99108.91;1670153;83;21211;-76
2021/03/12 02:38:56;;;;;;;;;;;;;;;4.24;77.86;99114.86;1660478;86;20187;-76
2021/03/12 02:41:41;;;;;;;;;;;;;;;4.25;77.87;99110.16;1664042;86;20286;-76
2021/03/12 02:44:27;;;;;;;;;;;;;;;4.27;77.95;99111.41;1649945;85;20315;-76
2021/03/12 02:47:18;;;;;;;;;;;;;;;4.31;78.01;99115.19;1662658;86;20307;-76
2021/03/12 02:50:05;;;;;;;;;;;;;;;4.34;78.04;99116.86;1649204;84;21238;-76
2021/03/12 02:52:51;;;;;;;;;;;;;;;4.37;78.05;99113.41;1636494;86;20321;-76
2021/03/12 02:55:37;;;;;;;;;;;;;;;4.43;78.04;99123.55;1648416;85;20326;-76
2021/03/12 02:58:22;;;;;;;;;;;;;;;4.47;78.13;99121.36;1635516;86;20609;-76
2021/03/12 03:01:07;;;;;;;;;;;;;;;4.52;78.11;99122.98;1649178;84;20529;-76
2021/03/12 03:03:52;;;;;;;;;;;;;;;4.57;78.11;99123.75;1635853;86;20408;-76
2021/03/12 03:06:37;;;;;;;;;;;;;;;4.61;78.10;99121.55;1662749;85;20297;-76
2021/03/12 03:09:23;;;;;;;;;;;;;;;4.64;78.10;99129.19;1659936;86;20358;-76
2021/03/12 03:12:11;;;;;;;;;;;;;;;4.66;78.08;99122.77;1662547;86;20314;-77
2021/03/12 03:14:58;;;;;;;;;;;;;;;4.68;78.06;99124.83;1663627;85;20305;-77
2021/03/12 03:17:45;;;;;;;;;;;;;;;4.71;78.13;99124.78;1668200;84;20645;-76
2021/03/12 03:20:29;;;;;;;;;;;;;;;4.74;78.16;99118.33;1673117;85;20306;-76
2021/03/12 03:23:14;;;;;;;;;;;;;;;4.77;78.15;99123.41;1669637;85;20421;-76
2021/03/12 03:25:59;;;;;;;;;;;;;;;4.79;78.12;99125.94;1693726;84;20304;-76
2021/03/12 03:28:43;;;;;;;;;;;;;;;4.81;78.17;99124.20;1699936;84;20308;-76
2021/03/12 03:31:28;;;;;;;;;;;;;;;4.82;78.13;99126.73;1692142;84;20389;-76
2021/03/12 03:34:13;;;;;;;;;;;;;;;4.84;78.12;99134.39;1665314;85;20775;-77
2021/03/12 03:36:58;;;;;;;;;;;;;;;4.84;78.13;99133.11;1660539;84;20600;-76
2021/03/12 03:39:42;;;;;;;;;;;;;;;4.84;78.15;99138.23;1649783;87;20313;-77
2021/03/12 03:42:29;;;;;;;;;;;;;;;4.85;78.16;99140.77;1649950;85;20984;-76
2021/03/12 03:45:15;;;;;;;;;;;;;;;4.85;78.18;99148.89;1651147;87;20384;-76
2021/03/12 03:48:00;;;;;;;;;;;;;;;4.84;78.16;99153.16;1651151;87;20289;-76
2021/03/12 03:50:45;;;;;;;;;;;;;;;4.83;78.16;99157.88;1665222;85;20324;-76
2021/03/12 03:53:31;;;;;;;;;;;;;;;4.82;78.14;99158.75;1649708;85;20316;-76
2021/03/12 03:56:17;;;;;;;;;;;;;;;4.80;78.15;99163.05;1659768;84;20324;-76
2021/03/12 03:59:03;;;;;;;;;;;;;;;4.78;78.18;99157.10;1649707;87;20348;-76
2021/03/12 04:01:48;;;;;;;;;;;;;;;4.76;78.14;99163.11;1655108;84;20312;-76
2021/03/12 04:04:33;;;;;;;;;;;;;;;4.74;78.21;99163.58;1680163;84;20358;-76
2021/03/12 04:07:21;;;;;;;;;;;;;;;4.72;78.20;99166.59;1675014;85;20275;-76
2021/03/12 04:10:06;;;;;;;;;;;;;;;4.69;78.22;99166.64;1651247;85;20293;-76
2021/03/12 04:12:51;;;;;;;;;;;;;;;4.68;78.21;99173.94;1680878;84;20266;-77
2021/03/12 04:15:36;;;;;;;;;;;;;;;4.63;78.18;99172.30;1672930;84;20271;-77
2021/03/12 04:18:21;;;;;;;;;;;;;;;4.60;78.24;99177.46;1640520;84;20269;-77
2021/03/12 04:21:06;;;;;;;;;;;;;;;4.57;78.27;99176.23;1685612;84;20261;-77
2021/03/12 04:23:51;;;;;;;;;;;;;;;4.57;78.26;99169.83;1650739;84;20267;-77
2021/03/12 04:26:36;;;;;;;;;;;;;;;4.56;78.37;99174.53;1667280;86;20291;-77
2021/03/12 04:29:22;;;;;;;;;;;;;;;4.58;78.41;99171.95;1667169;86;20280;-77
2021/03/12 04:32:07;;;;;;;;;;;;;;;4.59;78.41;99180.05;1670803;83;20275;-76
2021/03/12 04:34:51;;;;;;;;;;;;;;;4.60;78.41;99185.14;1667365;86;20550;-76
2021/03/12 04:37:36;;;;;;;;;;;;;;;4.59;78.38;99187.29;1664733;86;20271;-76
2021/03/12 04:40:20;;;;;;;;;;;;;;;4.60;78.40;99197.09;1666319;83;20283;-76
2021/03/12 04:43:05;;;;;;;;;;;;;;;4.60;78.42;99198.38;1667236;86;20291;-76
2021/03/12 04:45:50;;;;;;;;;;;;;;;4.60;78.43;99194.10;1663536;85;20255;-76
2021/03/12 04:48:35;;;;;;;;;;;;;;;4.61;78.44;99205.19;1644827;86;20257;-76
2021/03/12 04:51:20;;;;;;;;;;;;;;;4.64;78.49;99216.66;1666572;86;20251;-76
2021/03/12 04:54:09;;;;;;;;;;;;;;;4.65;78.48;99211.95;1666002;85;20168;-76
2021/03/12 04:56:53;;;;;;;;;;;;;;;4.67;78.51;99209.37;1657644;86;20388;-76
2021/03/12 04:59:38;;;;;;;;;;;;;;;4.70;78.50;99222.09;1649831;86;20310;-76
2021/03/12 05:02:24;;;;;;;;;;;;;;;4.69;78.45;99218.69;1646165;85;20311;-77
2021/03/12 05:05:10;;;;;;;;;;;;;;;4.70;78.46;99220.38;1657621;86;20316;-76
2021/03/12 05:07:55;;;;;;;;;;;;;;;4.68;78.46;99223.87;1657780;86;20318;-76
2021/03/12 05:11:01;;;;;;;;;;;;;;;4.68;78.47;99227.24;1656856;86;20514;-76
2021/03/12 05:13:51;;;;;;;;;;;;;;;4.69;78.53;99230.65;1568517;90;20338;-76
2021/03/12 05:16:35;;;;;;;;;;;;;;;4.69;78.54;99232.77;1573588;88;20354;-76
2021/03/12 05:19:20;;;;;;;;;;;;;;;4.71;78.57;99232.75;1571049;89;20330;-76
2021/03/12 05:22:05;;;;;;;;;;;;;;;4.73;78.57;99240.83;1577448;89;20625;-77
2021/03/12 05:24:49;;;;;;;;;;;;;;;4.73;78.58;99238.27;1576893;89;21124;-77
2021/03/12 05:27:34;;;;;;;;;;;;;;;4.75;78.57;99248.48;1582044;89;20320;-76
2021/03/12 05:30:18;;;;;;;;;;;;;;;4.76;78.61;99248.46;1576944;90;20370;-77
2021/03/12 05:33:04;;;;;;;;;;;;;;;4.78;78.61;99242.03;1581592;90;20336;-76
2021/03/12 05:35:49;;;;;;;;;;;;;;;4.80;78.62;99244.98;1567398;90;20327;-76
2021/03/12 05:38:34;;;;;;;;;;;;;;;4.83;78.64;99250.50;1564694;90;20674;-73
2021/03/12 05:41:19;;;;;;;;;;;;;;;4.85;78.63;99247.48;1558926;90;20336;-73
2021/03/12 05:44:05;;;;;;;;;;;;;;;4.86;78.64;99256.42;1592096;85;20341;-73
2021/03/12 05:46:50;;;;;;;;;;;;;;;4.88;78.65;99257.69;1675531;84;20945;-77
2021/03/12 05:49:34;;;;;;;;;;;;;;;4.90;78.65;99259.79;1662657;84;20314;-77
2021/03/12 05:52:19;;;;;;;;;;;;;;;4.92;78.65;99255.05;1676559;85;20297;-77
2021/03/12 05:55:04;;;;;;;;;;;;;;;4.96;78.65;99268.66;1678069;84;20345;-77
2021/03/12 05:57:49;;;;;;;;;;;;;;;5.00;78.66;99276.71;1669491;85;20320;-77
2021/03/12 06:00:34;;;;;;;;;;;;;;;5.04;78.66;99287.33;1679142;84;20305;-77
2021/03/12 06:03:18;;;;;;;;;;;;;;;5.08;78.66;99271.04;1653237;85;20350;-77
2021/03/12 06:06:03;;;;;;;;;;;;;;;5.12;78.66;99291.05;1671608;85;20285;-77
2021/03/12 06:08:48;;;;;;;;;;;;;;;5.15;78.68;99293.58;1671850;85;20608;-77
2021/03/12 06:11:33;;;;;;;;;;;;;;;5.19;78.70;99302.47;1667308;84;20309;-77
2021/03/12 06:14:17;;;;;;;;;;;;;;;5.24;78.71;99318.59;1673396;84;20325;-77
2021/03/12 06:17:02;;;;;;;;;;;;;;;5.27;78.72;99314.70;1659297;84;20640;-77
2021/03/12 06:19:53;;;;;;;;;;;;;;;5.33;78.70;99329.14;1665197;84;20433;-74
2021/03/12 06:22:50;;;;;;;;;;;;;;;5.35;78.66;99339.37;1641175;84;20590;-76
2021/03/12 06:25:35;;;;;;;;;;;;;;;5.36;78.71;99338.50;1673974;84;20297;-77
2021/03/12 06:28:20;;;;;;;;;;;;;;;5.39;78.71;99346.98;1672375;84;20287;-77
2021/03/12 06:31:25;;;;;;;;;;;;;;;5.42;78.70;99349.50;1648133;84;20255;-78
2021/03/12 06:34:11;;;;;;;;;;;;;;;5.44;78.72;99349.48;1664602;84;20275;-78
2021/03/12 06:36:55;;;;;;;;;;;;;;;5.47;78.76;99352.84;1672356;84;20306;-78
2021/03/12 06:39:40;;;;;;;;;;;;;;;5.52;78.77;99361.75;1668427;85;20310;-77
2021/03/12 06:42:25;;;;;;;;;;;;;;;5.55;78.76;99371.52;1662009;86;20669;-77
2021/03/12 06:45:11;;;;;;;;;;;;;;;5.59;78.77;99372.32;1657050;84;21238;-77
2021/03/12 06:48:19;;;;;;;;;;;;;;;5.63;78.72;99396.61;1643237;86;20320;-78
2021/03/12 06:51:07;;;;;;;;;;;;;;;5.65;78.71;99391.02;1664056;84;20303;-77
2021/03/12 06:53:53;;;;;;;;;;;;;;;5.68;78.69;99398.26;1666688;84;20318;-77
2021/03/12 06:56:38;;;;;;;;;;;;;;;5.70;78.72;99405.48;1614689;88;20337;-78
2021/03/12 06:59:30;;;;;;;;;;;;;;;5.73;78.65;99415.23;1622256;88;20297;-78
2021/03/12 07:02:15;;;;;;;;;;;;;;;5.74;78.66;99415.64;1628641;86;20305;-78
2021/03/12 07:05:00;;;;;;;;;;;;;;;5.75;78.63;99413.92;1658611;84;20590;-77
2021/03/12 07:07:44;;;;;;;;;;;;;;;5.77;78.65;99424.58;1621144;86;20317;-77
2021/03/12 07:10:35;;;;;;;;;;;;;;;5.81;78.73;99421.09;1621695;86;20357;-77
2021/03/12 07:13:20;;;;;;;;;;;;;;;5.86;78.64;99429.56;1640869;85;20341;-76
2021/03/12 07:16:05;;;;;;;;;;;;;;;5.89;78.67;99426.98;1637973;85;20314;-77
2021/03/12 07:18:50;;;;;;;;;;;;;;;5.93;78.65;99440.17;1619866;87;20420;-75
2021/03/12 07:21:37;;;;;;;;;;;;;;;5.97;78.61;99446.10;1623325;86;20365;-77
2021/03/12 07:24:22;;;;;;;;;;;;;;;6.05;78.66;99447.27;1616993;86;20258;-76
2021/03/12 07:27:07;;;;;;;;;;;;;;;6.15;78.66;99456.50;1623940;86;20205;-77
2021/03/12 07:29:53;;;;;;;;;;;;;;;6.22;78.61;99462.80;1625529;86;20272;-77
2021/03/12 07:32:38;;;;;;;;;;;;;;;6.27;78.44;99481.94;1621404;87;20177;-77
2021/03/12 07:35:24;;;;;;;;;;;;;;;6.28;78.44;99478.06;1620346;87;20275;-77
2021/03/12 07:38:11;;;;;;;;;;;;;;;6.28;78.35;99487.05;1574004;90;20465;-77
2021/03/12 07:40:55;;;;;;;;;;;;;;;6.30;78.41;99492.16;1622161;87;20268;-77
2021/03/12 07:43:40;;;;;;;;;;;;;;;6.33;78.39;99497.23;1628698;87;20460;-77
2021/03/12 07:46:26;;;;;;;;;;;;;;;6.39;78.46;99492.44;1625356;86;20264;-77
2021/03/12 07:49:32;;;;;;;;;;;;;;;6.46;78.48;99494.88;1625774;86;20307;-77
2021/03/12 07:52:17;;;;;;;;;;;;;;;6.53;78.50;99490.05;1623089;87;20293;-77
2021/03/12 07:55:01;;;;;;;;;;;;;;;6.58;78.26;99495.10;1620813;87;20279;-77
2021/03/12 07:57:46;;;;;;;;;;;;;;;6.56;78.20;99499.42;1620972;87;20754;-77
2021/03/12 08:00:31;;;;;;;;;;;;;;;6.58;78.24;99505.37;1615240;87;20331;-77
2021/03/12 08:03:22;;;;;;;;;;;;;;;6.64;78.36;99521.53;1625753;87;20319;-77
2021/03/12 08:06:20;;;;;;;;;;;;;;;6.75;78.29;99526.48;1628139;87;20295;-77
2021/03/12 08:09:23;;;;;;;;;;;;;;;6.83;78.28;99533.58;1621741;87;21454;-76
2021/03/12 08:12:08;;;;;;;;;;;;;;;6.90;78.17;99542.88;1523205;92;20339;-77
2021/03/12 08:15:14;;;;;;;;;;;;;;;6.91;78.11;99542.00;1595022;87;20299;-76
2021/03/12 08:18:02;;;;;;;;;;;;;;;6.86;77.94;99557.94;1649934;85;20470;-77
2021/03/12 08:20:46;;;;;;;;;;;;;;;6.81;77.90;99553.75;1650736;85;20874;-77
2021/03/12 08:23:33;;;;;;;;;;;;;;;6.75;78.00;99565.45;1648671;85;20312;-77
2021/03/12 08:26:37;;;;;;;;;;;;;;;6.73;78.01;99568.05;1650146;85;20300;-77
2021/03/12 08:29:35;;;;;;;;;;;;;;;6.70;77.96;99569.38;1649229;85;20317;-77
2021/03/12 08:32:37;;;;;;;;;;;;;;;6.71;78.07;99569.80;1649777;85;20671;-76
2021/03/12 08:35:42;;;;;;;;;;;;;;;6.75;78.08;99574.44;1654223;85;20294;-76
2021/03/12 08:38:30;;;;;;;;;;;;;;;6.82;78.13;99576.84;1657092;85;20410;-77
2021/03/12 08:41:17;;;;;;;;;;;;;;;6.96;78.13;99581.31;1643968;85;20296;-76
2021/03/12 08:44:01;;;;;;;;;;;;;;;7.03;77.99;99592.33;1654616;85;20343;-76
2021/03/12 08:46:46;;;;;;;;;;;;;;;7.05;77.85;99590.58;1655803;85;20320;-76
2021/03/12 08:49:31;;;;;;;;;;;;;;;7.10;77.87;99592.62;1617309;87;20301;-76
2021/03/12 08:52:16;;;;;;;;;;;;;;;7.19;77.98;99591.17;1651719;85;20292;-76
2021/03/12 08:55:01;;;;;;;;;;;;;;;7.33;78.01;99602.46;1644486;86;20298;-77
2021/03/12 08:57:45;;;;;;;;;;;;;;;7.46;77.81;99605.20;1642929;86;20278;-77
2021/03/12 09:00:30;;;;;;;;;;;;;;;7.44;77.64;99606.11;1635038;86;20299;-77
2021/03/12 09:03:21;;;;;;;;;;;;;;;7.43;77.59;99612.13;1644897;86;20309;-77
2021/03/12 09:06:11;;;;;;;;;;;;;;;7.38;77.62;99618.65;1640235;86;20694;-77
2021/03/12 09:08:55;;;;;;;;;;;;;;;7.40;77.70;99610.47;1641433;86;20258;-75
2021/03/12 09:11:40;;;;;;;;;;;;;;;7.45;77.72;99618.09;1642975;86;20273;-76
2021/03/12 09:14:24;;;;;;;;;;;;;;;7.46;77.66;99620.64;1643652;86;20582;-76
2021/03/12 09:17:08;;;;;;;;;;;;;;;7.45;77.48;99615.08;1643848;86;20215;-76
2021/03/12 09:19:53;;;;;;;;;;;;;;;7.43;77.54;99610.84;1644046;85;20276;-76
2021/03/12 09:22:38;;;;;;;;;;;;;;;7.48;77.76;99615.03;1646745;86;20172;-75
2021/03/12 09:25:30;;;;;;;;;;;;;;;7.57;77.60;99607.56;1642406;86;20473;-75
2021/03/12 09:28:15;;;;;;;;;;;;;;;7.62;77.61;99610.90;1646105;86;20481;-75
2021/03/12 09:30:59;;;;;;;;;;;;;;;7.70;77.64;99614.16;1656081;85;20165;-76
2021/03/12 09:33:52;;;;;;;;;;;;;;;7.83;77.66;99611.72;1655636;85;20292;-76
2021/03/12 09:36:46;;;;;;;;;;;;;;;8.00;77.72;99613.94;1652014;85;20263;-76
2021/03/12 09:39:30;;;;;;;;;;;;;;;8.17;77.61;99621.30;1657005;85;20302;-75
2021/03/12 09:42:15;;;;;;;;;;;;;;;8.23;77.24;99627.60;1651074;85;20463;-75
2021/03/12 09:44:59;;;;;;;;;;;;;;;8.20;77.15;99623.80;1656368;85;20293;-75
2021/03/12 09:47:49;;;;;;;;;;;;;;;8.19;77.20;99631.97;1651798;85;20481;-75
2021/03/12 09:50:35;;;;;;;;;;;;;;;8.15;76.95;99639.36;1651092;85;20252;-75
2021/03/12 09:53:21;;;;;;;;;;;;;;;8.00;76.73;99643.54;1651132;85;20295;-75
2021/03/12 09:56:06;;;;;;;;;;;;;;;7.87;76.80;99640.81;1647506;85;20272;-75
2021/03/12 09:58:51;;;;;;;;;;;;;;;7.76;76.84;99637.20;1649939;85;20311;-75
2021/03/12 10:01:40;;;;;;;;;;;;;;;7.76;77.07;99646.64;1651211;85;20332;-75
2021/03/12 10:04:28;;;;;;;;;;;;;;;7.78;77.00;99645.73;1652862;85;20297;-75
2021/03/12 10:07:17;;;;;;;;;;;;;;;7.82;77.04;99643.48;1650199;85;20257;-75
2021/03/12 10:10:13;;;;;;;;;;;;;;;7.88;76.98;99653.65;1656345;85;20287;-76
2021/03/12 10:13:00;;;;;;;;;;;;;;;7.93;76.99;99657.42;1657977;85;20552;-75
2021/03/12 10:15:44;;;;;;;;;;;;;;;7.98;76.93;99656.89;1651808;85;20501;-75
2021/03/12 10:18:29;;;;;;;;;;;;;;;8.04;76.86;99648.19;1655759;85;20386;-75
2021/03/12 10:21:14;;;;;;;;;;;;;;;8.10;76.76;99654.50;1657308;85;20305;-75
2021/03/12 10:23:58;;;;;;;;;;;;;;;8.11;76.67;99660.05;1661730;85;20435;-75
2021/03/12 10:26:43;;;;;;;;;;;;;;;8.14;76.80;99664.70;1654854;85;20295;-75
2021/03/12 10:29:27;;;;;;;;;;;;;;;8.23;76.76;99670.09;1620876;87;20416;-76
2021/03/12 10:32:13;;;;;;;;;;;;;;;8.30;76.73;99675.52;1615878;87;20301;-75
2021/03/12 10:35:00;;;;;;;;;;;;;;;8.34;76.45;99672.44;1622399;87;20610;-74
2021/03/12 10:37:44;;;;;;;;;;;;;;;8.26;76.27;99673.89;1643698;86;20679;-75
2021/03/12 10:40:38;;;;;;;;;;;;;;;8.15;76.29;99671.54;1649081;86;20289;-75
2021/03/12 10:43:30;;;;;;;;;;;;;;;8.06;76.29;99675.59;1648000;86;20333;-75
2021/03/12 10:46:18;;;;;;;;;;;;;;;7.98;76.17;99681.34;1652769;86;20293;-75
2021/03/12 10:49:04;;;;;;;;;;;;;;;7.89;76.16;99686.23;1641402;86;20303;-75
2021/03/12 10:51:48;;;;;;;;;;;;;;;7.83;76.15;99686.80;1648729;85;20410;-75
2021/03/12 10:54:33;;;;;;;;;;;;;;;7.79;76.14;99678.75;1647549;86;20291;-75
2021/03/12 10:57:18;;;;;;;;;;;;;;;7.74;76.08;99688.28;1646864;86;20610;-75
2021/03/12 11:00:08;;;;;;;;;;;;;;;7.77;76.27;99685.66;1641004;86;20289;-74
2021/03/12 11:02:58;;;;;;;;;;;;;;;7.81;76.14;99692.41;1643113;86;20327;-75
2021/03/12 11:05:43;;;;;;;;;;;;;;;7.84;76.20;99690.63;1642618;86;20265;-75
2021/03/12 11:08:28;;;;;;;;;;;;;;;7.91;76.20;99696.05;1661931;84;20304;-75
2021/03/12 11:11:16;;;;;;;;;;;;;;;8.01;76.15;99687.71;1648488;86;20433;-75
2021/03/12 11:14:00;;;;;;;;;;;;;;;8.12;76.10;99695.22;1642230;85;20490;-76
2021/03/12 11:16:45;;;;;;;;;;;;;;;8.24;76.05;99697.10;1642024;86;20164;-75
2021/03/12 11:19:30;;;;;;;;;;;;;;;8.34;75.77;99696.47;1648486;86;20282;-75
2021/03/12 11:22:14;;;;;;;;;;;;;;;8.40;75.76;99702.77;1652579;86;20299;-75
2021/03/12 11:24:58;;;;;;;;;;;;;;;8.44;75.68;99699.25;1646780;85;20267;-76
2021/03/12 11:27:44;;;;;;;;;;;;;;;8.49;75.66;99697.42;1663556;85;20614;-76
2021/03/12 11:30:28;;;;;;;;;;;;;;;8.54;75.53;99690.44;1635982;85;20205;-76
2021/03/12 11:33:13;;;;;;;;;;;;;;;8.66;75.67;99685.89;1640163;85;20279;-76
2021/03/12 11:35:57;;;;;;;;;;;;;;;8.80;75.44;99691.13;1632235;85;20277;-76
2021/03/12 11:38:42;;;;;;;;;;;;;;;8.86;75.29;99688.37;1613698;86;20298;-76
2021/03/12 11:41:26;;;;;;;;;;;;;;;8.90;75.18;99692.58;1661628;86;20255;-76
2021/03/12 11:44:10;;;;;;;;;;;;;;;8.98;75.26;99680.80;1651593;86;20280;-78
2021/03/12 11:46:55;;;;;;;;;;;;;;;9.16;75.16;99707.42;1646139;86;20269;-75
2021/03/12 11:49:39;;;;;;;;;;;;;;;9.29;75.05;99696.36;1647973;86;20247;-76
2021/03/12 11:52:26;;;;;;;;;;;;;;;9.44;75.02;99688.19;1646121;86;20525;-75
2021/03/12 11:55:11;;;;;;;;;;;;;;;9.51;74.48;99706.50;1646353;86;20305;-75
2021/03/12 11:57:55;;;;;;;;;;;;;;;9.42;74.43;99708.03;1646268;86;20661;-75
2021/03/12 12:00:39;;;;;;;;;;;;;;;9.33;74.48;99710.87;1633885;86;20328;-76
2021/03/12 12:03:24;;;;;;;;;;;;;;;9.39;74.86;99705.97;1649001;86;20284;-76
2021/03/12 12:06:09;;;;;;;;;;;;;;;9.43;74.38;99708.88;1652152;86;20320;-76
2021/03/12 12:08:53;;;;;;;;;;;;;;;9.44;74.41;99706.70;1642930;86;20391;-74
2021/03/12 12:11:38;;;;;;;;;;;;;;;9.44;74.45;99701.09;1643209;85;20317;-75
2021/03/12 12:14:22;;;;;;;;;;;;;;;9.58;74.38;99705.90;1643941;85;20302;-75
2021/03/12 12:17:07;;;;;;;;;;;;;;;9.64;74.19;99712.19;1643252;85;20381;-75
2021/03/12 12:19:52;;;;;;;;;;;;;;;9.69;74.12;99712.91;1637859;85;20318;-73
2021/03/12 12:22:36;;;;;;;;;;;;;;;9.73;74.13;99704.64;1628954;86;20283;-74
2021/03/12 12:25:21;;;;;;;;;;;;;;;9.73;73.82;99711.09;1641202;86;20293;-74
2021/03/12 12:28:06;;;;;;;;;;;;;;;9.70;73.85;99701.70;1643814;86;20613;-74
2021/03/12 12:30:51;;;;;;;;;;;;;;;9.65;73.79;99725.50;1654173;85;20323;-75
2021/03/12 12:33:35;;;;;;;;;;;;;;;9.57;73.67;99719.69;1653001;85;20590;-74
2021/03/12 12:36:20;;;;;;;;;;;;;;;9.46;73.48;99742.34;1644754;86;20307;-73
2021/03/12 12:39:07;;;;;;;;;;;;;;;9.28;73.32;99757.86;1648553;85;20299;-74
2021/03/12 12:41:51;;;;;;;;;;;;;;;9.08;73.55;99732.55;1637067;85;20305;-74
2021/03/12 12:44:36;;;;;;;;;;;;;;;9.01;73.76;99724.55;1643819;86;20315;-75
2021/03/12 12:47:21;;;;;;;;;;;;;;;9.14;73.86;99730.27;1656007;86;20658;-75
2021/03/12 12:50:06;;;;;;;;;;;;;;;9.18;73.67;99727.58;1637573;86;20473;-74
2021/03/12 12:52:50;;;;;;;;;;;;;;;9.16;73.39;99724.63;1652851;86;20442;-75
2021/03/12 12:55:34;;;;;;;;;;;;;;;9.09;73.24;99725.22;1642712;85;20308;-74
2021/03/12 12:58:19;;;;;;;;;;;;;;;9.04;73.37;99736.09;1639660;85;20789;-75
2021/03/12 13:01:04;;;;;;;;;;;;;;;9.05;73.46;99728.75;1648049;85;20279;-75
2021/03/12 13:03:48;;;;;;;;;;;;;;;9.07;73.36;99725.70;1648464;86;20563;-75
2021/03/12 13:06:32;;;;;;;;;;;;;;;9.03;73.26;99724.52;1645838;85;20297;-77
2021/03/12 13:09:17;;;;;;;;;;;;;;;8.92;73.12;99723.04;1637170;86;20172;-76
2021/03/12 13:12:01;;;;;;;;;;;;;;;8.81;73.14;99734.52;1633248;85;20269;-75
2021/03/12 13:14:45;;;;;;;;;;;;;;;8.74;73.15;99731.67;1637682;86;20504;-76
2021/03/12 13:17:30;;;;;;;;;;;;;;;8.67;73.18;99741.70;1626633;84;20473;-75
2021/03/12 13:20:18;;;;;;;;;;;;;;;8.54;73.12;99775.91;1668254;85;20486;-74
2021/03/12 13:23:01;;;;;;;;;;;;;;;8.35;73.10;99791.33;1661504;85;20272;-75
2021/03/12 13:25:45;;;;;;;;;;;;;;;8.04;73.25;99785.48;1664807;86;20295;-74
2021/03/12 13:28:29;;;;;;;;;;;;;;;7.83;73.71;99762.71;1659951;84;20267;-73
2021/03/12 13:31:13;;;;;;;;;;;;;;;7.73;73.87;99773.64;1655593;85;20263;-72
2021/03/12 13:34:01;;;;;;;;;;;;;;;7.72;74.02;99769.38;1636954;86;20284;-76
2021/03/12 13:36:43;;;;;;;;;;;;;;;7.73;74.02;99771.06;1658222;83;20623;-74
2021/03/12 13:39:28;;;;;;;;;;;;;;;7.74;73.94;99776.62;1642345;84;20294;-75
2021/03/12 13:42:12;;;;;;;;;;;;;;;7.73;73.91;99777.50;1656542;85;20284;-74
2021/03/12 13:44:56;;;;;;;;;;;;;;;7.69;73.74;99778.43;1645903;84;20254;-72
2021/03/12 13:47:41;;;;;;;;;;;;;;;7.63;73.68;99790.97;1663708;84;20271;-74
2021/03/12 13:50:29;;;;;;;;;;;;;;;7.62;73.81;99785.41;1657371;84;20270;-75
2021/03/12 13:53:13;;;;;;;;;;;;;;;7.64;73.81;99779.80;1663844;85;20275;-74
2021/03/12 13:55:57;;;;;;;;;;;;;;;7.67;73.85;99776.32;1660260;84;20168;-74
2021/03/12 13:58:42;;;;;;;;;;;;;;;7.73;73.70;99777.94;1663566;85;20208;-74
2021/03/12 14:01:26;;;;;;;;;;;;;;;7.75;73.68;99777.04;1664628;84;20212;-74
2021/03/12 14:04:10;;;;;;;;;;;;;;;7.78;73.72;99778.27;1663423;85;20255;-74
2021/03/12 14:06:55;;;;;;;;;;;;;;;7.85;73.71;99773.83;1664103;84;20476;-74
2021/03/12 14:09:39;;;;;;;;;;;;;;;7.92;73.67;99782.70;1662645;84;20256;-74
2021/03/12 14:12:24;;;;;;;;;;;;;;;7.98;73.57;99776.15;1663919;85;20172;-74
2021/03/12 14:15:09;;;;;;;;;;;;;;;8.06;73.53;99769.56;1657415;85;20251;-74
2021/03/12 14:17:53;;;;;;;;;;;;;;;8.12;73.45;99763.45;1657098;84;20255;-74
2021/03/12 14:20:37;;;;;;;;;;;;;;;8.18;73.45;99770.62;1662045;84;20472;-74
2021/03/12 14:23:21;;;;;;;;;;;;;;;8.25;73.30;99762.33;1658300;85;20550;-73
2021/03/12 14:26:06;;;;;;;;;;;;;;;8.29;73.20;99770.41;1661457;85;20440;-73
2021/03/12 14:28:50;;;;;;;;;;;;;;;8.36;73.27;99769.84;1657362;84;20274;-74
2021/03/12 14:31:34;;;;;;;;;;;;;;;8.43;73.20;99766.27;1662711;85;20228;-74
2021/03/12 14:34:19;;;;;;;;;;;;;;;8.53;73.08;99761.33;1661868;85;20286;-73
2021/03/12 14:37:03;;;;;;;;;;;;;;;8.61;72.89;99762.02;1655256;85;20196;-73